Terminal Aerodrome Forecast
Issued by NWS Brownsville, TX

Current Version | Previous Version | Text Only | Print | Product List | Glossary Off
Versions: 1 2 3 4 5 6 7 8 9 10 11 12 13 14 15 16 17 18 19 20 21 22 23 24 25 26

000
FTUS44 KBRO 271739
TAFHRL
TAF
KHRL 271739Z 2718/2818 VRB06KT P6SM VCSH SCT035 BKN050
      TEMPO 2718/2722 SHRA BKN025
     FM280300 VRB03KT P6SM FEW040 SCT250
     FM281000 VRB05KT P6SM BKN040=

USA.gov is the U.S. government's official web portal to all federal, state and local government web resources and services.